sensor_id;sensor_type;location;lat;lon;timestamp;P1;durP1;ratioP1;P2;durP2;ratioP2
19257;SDS011;9763;48.780;9.212;2022-08-23T00:03:09;1.80;;;1.20;;
19257;SDS011;9763;48.780;9.212;2022-08-23T00:06:34;1.83;;;1.33;;
19257;SDS011;9763;48.780;9.212;2022-08-23T00:09:58;2.13;;;1.13;;
19257;SDS011;9763;48.780;9.212;2022-08-23T00:13:22;1.80;;;1.10;;
19257;SDS011;9763;48.780;9.212;2022-08-23T00:17:09;2.07;;;1.00;;
19257;SDS011;9763;48.780;9.212;2022-08-23T00:20:53;1.40;;;1.00;;
19257;SDS011;9763;48.780;9.212;2022-08-23T00:24:18;2.40;;;1.10;;
19257;SDS011;9763;48.780;9.212;2022-08-23T00:27:43;1.93;;;0.97;;
19257;SDS011;9763;48.780;9.212;2022-08-23T00:31:06;1.60;;;1.13;;
19257;SDS011;9763;48.780;9.212;2022-08-23T00:34:30;2.60;;;1.10;;
19257;SDS011;9763;48.780;9.212;2022-08-23T00:37:54;1.63;;;1.10;;
19257;SDS011;9763;48.780;9.212;2022-08-23T00:41:40;2.00;;;1.07;;
19257;SDS011;9763;48.780;9.212;2022-08-23T00:45:06;1.50;;;1.00;;
19257;SDS011;9763;48.780;9.212;2022-08-23T00:48:49;1.60;;;1.03;;
19257;SDS011;9763;48.780;9.212;2022-08-23T00:52:17;1.40;;;1.10;;
19257;SDS011;9763;48.780;9.212;2022-08-23T00:55:51;1.67;;;1.00;;
19257;SDS011;9763;48.780;9.212;2022-08-23T00:59:23;1.43;;;1.00;;
19257;SDS011;9763;48.780;9.212;2022-08-23T01:02:48;4.10;;;1.10;;
19257;SDS011;9763;48.780;9.212;2022-08-23T01:06:15;2.00;;;1.13;;
19257;SDS011;9763;48.780;9.212;2022-08-23T01:09:46;1.43;;;0.80;;
19257;SDS011;9763;48.780;9.212;2022-08-23T01:13:18;4.03;;;0.97;;
19257;SDS011;9763;48.780;9.212;2022-08-23T01:16:49;1.50;;;1.10;;
19257;SDS011;9763;48.780;9.212;2022-08-23T01:20:19;2.27;;;1.10;;
19257;SDS011;9763;48.780;9.212;2022-08-23T01:23:50;1.73;;;1.07;;
19257;SDS011;9763;48.780;9.212;2022-08-23T01:27:18;1.30;;;0.97;;
19257;SDS011;9763;48.780;9.212;2022-08-23T01:30:42;2.93;;;1.47;;
19257;SDS011;9763;48.780;9.212;2022-08-23T01:34:11;1.63;;;1.17;;
19257;SDS011;9763;48.780;9.212;2022-08-23T01:37:38;1.37;;;1.03;;
19257;SDS011;9763;48.780;9.212;2022-08-23T01:41:03;1.50;;;1.20;;
19257;SDS011;9763;48.780;9.212;2022-08-23T01:44:27;1.70;;;1.00;;
19257;SDS011;9763;48.780;9.212;2022-08-23T01:47:52;1.57;;;0.97;;
19257;SDS011;9763;48.780;9.212;2022-08-23T01:51:17;1.40;;;1.07;;
19257;SDS011;9763;48.780;9.212;2022-08-23T01:54:43;1.67;;;1.03;;
19257;SDS011;9763;48.780;9.212;2022-08-23T01:58:08;1.70;;;1.20;;
19257;SDS011;9763;48.780;9.212;2022-08-23T02:01:33;1.40;;;1.00;;
19257;SDS011;9763;48.780;9.212;2022-08-23T02:04:57;1.57;;;1.17;;
19257;SDS011;9763;48.780;9.212;2022-08-23T02:08:21;1.70;;;0.90;;
19257;SDS011;9763;48.780;9.212;2022-08-23T02:12:02;1.90;;;1.10;;
19257;SDS011;9763;48.780;9.212;2022-08-23T02:15:28;1.40;;;1.10;;
19257;SDS011;9763;48.780;9.212;2022-08-23T02:18:53;1.70;;;1.23;;
19257;SDS011;9763;48.780;9.212;2022-08-23T02:22:17;1.40;;;0.90;;
19257;SDS011;9763;48.780;9.212;2022-08-23T02:25:40;1.37;;;1.10;;
19257;SDS011;9763;48.780;9.212;2022-08-23T02:29:06;1.37;;;0.90;;
19257;SDS011;9763;48.780;9.212;2022-08-23T02:32:31;1.40;;;1.10;;
19257;SDS011;9763;48.780;9.212;2022-08-23T02:35:55;3.10;;;1.20;;
19257;SDS011;9763;48.780;9.212;2022-08-23T02:39:18;1.70;;;0.90;;
19257;SDS011;9763;48.780;9.212;2022-08-23T02:42:42;1.97;;;1.20;;
19257;SDS011;9763;48.780;9.212;2022-08-23T02:46:07;1.60;;;1.17;;
19257;SDS011;9763;48.780;9.212;2022-08-23T02:49:32;1.70;;;1.13;;
19257;SDS011;9763;48.780;9.212;2022-08-23T02:52:57;1.97;;;1.00;;
19257;SDS011;9763;48.780;9.212;2022-08-23T02:56:21;2.47;;;1.00;;
19257;SDS011;9763;48.780;9.212;2022-08-23T02:59:45;1.50;;;1.23;;
19257;SDS011;9763;48.780;9.212;2022-08-23T03:03:09;1.60;;;1.20;;
19257;SDS011;9763;48.780;9.212;2022-08-23T03:06:34;2.90;;;1.00;;
19257;SDS011;9763;48.780;9.212;2022-08-23T03:09:59;2.10;;;1.20;;
19257;SDS011;9763;48.780;9.212;2022-08-23T03:13:25;1.30;;;1.00;;
19257;SDS011;9763;48.780;9.212;2022-08-23T03:16:49;1.40;;;1.00;;
19257;SDS011;9763;48.780;9.212;2022-08-23T03:20:18;2.40;;;1.10;;
19257;SDS011;9763;48.780;9.212;2022-08-23T03:23:44;1.77;;;1.07;;
19257;SDS011;9763;48.780;9.212;2022-08-23T03:27:08;1.60;;;1.20;;
19257;SDS011;9763;48.780;9.212;2022-08-23T03:30:34;1.77;;;1.00;;
19257;SDS011;9763;48.780;9.212;2022-08-23T03:33:59;1.87;;;1.03;;
19257;SDS011;9763;48.780;9.212;2022-08-23T03:37:23;1.30;;;1.10;;
19257;SDS011;9763;48.780;9.212;2022-08-23T03:40:48;1.90;;;1.20;;
19257;SDS011;9763;48.780;9.212;2022-08-23T03:44:13;1.40;;;0.93;;
19257;SDS011;9763;48.780;9.212;2022-08-23T03:47:38;1.90;;;1.40;;
19257;SDS011;9763;48.780;9.212;2022-08-23T03:51:02;1.50;;;1.10;;
19257;SDS011;9763;48.780;9.212;2022-08-23T03:54:26;2.27;;;1.30;;
19257;SDS011;9763;48.780;9.212;2022-08-23T03:57:51;1.60;;;1.00;;
19257;SDS011;9763;48.780;9.212;2022-08-23T04:01:15;1.73;;;1.20;;
19257;SDS011;9763;48.780;9.212;2022-08-23T04:04:39;1.50;;;1.20;;
19257;SDS011;9763;48.780;9.212;2022-08-23T04:08:30;1.47;;;1.20;;
19257;SDS011;9763;48.780;9.212;2022-08-23T04:11:57;2.43;;;1.20;;
19257;SDS011;9763;48.780;9.212;2022-08-23T04:15:22;2.47;;;1.43;;
19257;SDS011;9763;48.780;9.212;2022-08-23T04:18:46;1.80;;;1.30;;
19257;SDS011;9763;48.780;9.212;2022-08-23T04:22:13;1.50;;;1.20;;
19257;SDS011;9763;48.780;9.212;2022-08-23T04:25:40;1.37;;;1.10;;
19257;SDS011;9763;48.780;9.212;2022-08-23T04:29:06;1.80;;;1.30;;
19257;SDS011;9763;48.780;9.212;2022-08-23T04:32:33;1.60;;;1.27;;
19257;SDS011;9763;48.780;9.212;2022-08-23T04:35:58;1.40;;;1.20;;
19257;SDS011;9763;48.780;9.212;2022-08-23T04:39:23;1.80;;;1.40;;
19257;SDS011;9763;48.780;9.212;2022-08-23T04:42:48;1.90;;;1.30;;
19257;SDS011;9763;48.780;9.212;2022-08-23T04:46:11;1.70;;;1.30;;
19257;SDS011;9763;48.780;9.212;2022-08-23T04:49:40;1.50;;;1.20;;
19257;SDS011;9763;48.780;9.212;2022-08-23T04:53:03;1.77;;;1.17;;
19257;SDS011;9763;48.780;9.212;2022-08-23T04:56:34;1.67;;;1.23;;
19257;SDS011;9763;48.780;9.212;2022-08-23T05:00:00;1.40;;;1.20;;
19257;SDS011;9763;48.780;9.212;2022-08-23T05:03:25;1.63;;;1.20;;
19257;SDS011;9763;48.780;9.212;2022-08-23T05:06:53;1.50;;;1.20;;
19257;SDS011;9763;48.780;9.212;2022-08-23T05:10:16;3.00;;;1.07;;
19257;SDS011;9763;48.780;9.212;2022-08-23T05:13:45;1.90;;;1.20;;
19257;SDS011;9763;48.780;9.212;2022-08-23T05:17:09;1.60;;;1.20;;
19257;SDS011;9763;48.780;9.212;2022-08-23T05:20:34;1.90;;;1.40;;
19257;SDS011;9763;48.780;9.212;2022-08-23T05:24:00;1.40;;;1.20;;
19257;SDS011;9763;48.780;9.212;2022-08-23T05:27:24;1.90;;;1.40;;
19257;SDS011;9763;48.780;9.212;2022-08-23T05:30:56;1.50;;;1.10;;
19257;SDS011;9763;48.780;9.212;2022-08-23T05:34:26;1.53;;;1.23;;
19257;SDS011;9763;48.780;9.212;2022-08-23T05:37:51;1.70;;;1.30;;
19257;SDS011;9763;48.780;9.212;2022-08-23T05:41:17;1.90;;;1.17;;
19257;SDS011;9763;48.780;9.212;2022-08-23T05:44:43;1.50;;;1.17;;
19257;SDS011;9763;48.780;9.212;2022-08-23T05:48:08;1.60;;;1.10;;
19257;SDS011;9763;48.780;9.212;2022-08-23T05:51:40;1.80;;;1.53;;
19257;SDS011;9763;48.780;9.212;2022-08-23T05:55:06;1.97;;;1.20;;
19257;SDS011;9763;48.780;9.212;2022-08-23T05:58:44;5.10;;;1.50;;
19257;SDS011;9763;48.780;9.212;2022-08-23T06:02:09;2.40;;;1.80;;
19257;SDS011;9763;48.780;9.212;2022-08-23T06:05:36;1.70;;;1.30;;
19257;SDS011;9763;48.780;9.212;2022-08-23T06:09:04;1.70;;;1.33;;
19257;SDS011;9763;48.780;9.212;2022-08-23T06:12:31;2.10;;;1.20;;
19257;SDS011;9763;48.780;9.212;2022-08-23T06:15:57;2.83;;;1.80;;
19257;SDS011;9763;48.780;9.212;2022-08-23T06:19:35;2.37;;;1.83;;
19257;SDS011;9763;48.780;9.212;2022-08-23T06:23:24;1.60;;;1.13;;
19257;SDS011;9763;48.780;9.212;2022-08-23T06:26:48;1.60;;;1.07;;
19257;SDS011;9763;48.780;9.212;2022-08-23T06:30:12;1.70;;;1.10;;
19257;SDS011;9763;48.780;9.212;2022-08-23T06:33:40;1.60;;;1.07;;
19257;SDS011;9763;48.780;9.212;2022-08-23T06:37:19;1.50;;;1.03;;
19257;SDS011;9763;48.780;9.212;2022-08-23T06:41:00;1.60;;;1.10;;
19257;SDS011;9763;48.780;9.212;2022-08-23T06:44:35;3.90;;;1.60;;
19257;SDS011;9763;48.780;9.212;2022-08-23T06:48:21;2.70;;;1.20;;
19257;SDS011;9763;48.780;9.212;2022-08-23T06:51:47;4.63;;;1.20;;
19257;SDS011;9763;48.780;9.212;2022-08-23T06:55:23;2.27;;;1.40;;
19257;SDS011;9763;48.780;9.212;2022-08-23T06:59:05;1.60;;;1.23;;
19257;SDS011;9763;48.780;9.212;2022-08-23T07:02:52;2.63;;;1.30;;
19257;SDS011;9763;48.780;9.212;2022-08-23T07:06:35;2.17;;;1.30;;
19257;SDS011;9763;48.780;9.212;2022-08-23T07:10:00;1.73;;;1.37;;
19257;SDS011;9763;48.780;9.212;2022-08-23T07:13:24;1.67;;;1.50;;
19257;SDS011;9763;48.780;9.212;2022-08-23T07:16:50;2.47;;;1.60;;
19257;SDS011;9763;48.780;9.212;2022-08-23T07:20:16;2.43;;;1.37;;
19257;SDS011;9763;48.780;9.212;2022-08-23T07:23:40;2.67;;;1.80;;
19257;SDS011;9763;48.780;9.212;2022-08-23T07:27:09;1.50;;;1.40;;
19257;SDS011;9763;48.780;9.212;2022-08-23T07:30:47;3.80;;;1.57;;
19257;SDS011;9763;48.780;9.212;2022-08-23T07:34:11;2.73;;;1.50;;
19257;SDS011;9763;48.780;9.212;2022-08-23T07:37:36;1.80;;;1.57;;
19257;SDS011;9763;48.780;9.212;2022-08-23T07:41:01;2.10;;;1.70;;
19257;SDS011;9763;48.780;9.212;2022-08-23T07:44:27;2.57;;;1.70;;
19257;SDS011;9763;48.780;9.212;2022-08-23T07:47:51;1.87;;;1.43;;
19257;SDS011;9763;48.780;9.212;2022-08-23T07:51:18;2.37;;;1.63;;
19257;SDS011;9763;48.780;9.212;2022-08-23T07:54:41;2.10;;;1.60;;
19257;SDS011;9763;48.780;9.212;2022-08-23T07:58:35;3.27;;;1.20;;
19257;SDS011;9763;48.780;9.212;2022-08-23T08:02:24;3.70;;;1.47;;
19257;SDS011;9763;48.780;9.212;2022-08-23T08:05:48;1.40;;;1.10;;
19257;SDS011;9763;48.780;9.212;2022-08-23T08:09:11;2.63;;;1.40;;
19257;SDS011;9763;48.780;9.212;2022-08-23T08:12:37;1.63;;;1.33;;
19257;SDS011;9763;48.780;9.212;2022-08-23T08:16:10;1.50;;;1.03;;
19257;SDS011;9763;48.780;9.212;2022-08-23T08:19:47;1.87;;;1.10;;
19257;SDS011;9763;48.780;9.212;2022-08-23T08:23:34;2.30;;;1.37;;
19257;SDS011;9763;48.780;9.212;2022-08-23T08:27:10;1.77;;;1.00;;
19257;SDS011;9763;48.780;9.212;2022-08-23T08:30:33;1.87;;;1.30;;
19257;SDS011;9763;48.780;9.212;2022-08-23T08:33:58;2.00;;;1.40;;
19257;SDS011;9763;48.780;9.212;2022-08-23T08:37:23;1.73;;;1.30;;
19257;SDS011;9763;48.780;9.212;2022-08-23T08:40:49;3.70;;;1.37;;
19257;SDS011;9763;48.780;9.212;2022-08-23T08:44:26;3.00;;;1.30;;
19257;SDS011;9763;48.780;9.212;2022-08-23T08:48:04;1.90;;;1.43;;
19257;SDS011;9763;48.780;9.212;2022-08-23T08:51:40;1.73;;;1.30;;
19257;SDS011;9763;48.780;9.212;2022-08-23T08:55:16;1.93;;;1.40;;
19257;SDS011;9763;48.780;9.212;2022-08-23T08:58:48;1.40;;;1.17;;
19257;SDS011;9763;48.780;9.212;2022-08-23T09:02:17;1.83;;;1.27;;
19257;SDS011;9763;48.780;9.212;2022-08-23T09:05:59;1.80;;;1.50;;
19257;SDS011;9763;48.780;9.212;2022-08-23T09:09:53;1.60;;;1.27;;
19257;SDS011;9763;48.780;9.212;2022-08-23T09:13:55;2.20;;;1.33;;
19257;SDS011;9763;48.780;9.212;2022-08-23T09:17:39;2.57;;;1.40;;
19257;SDS011;9763;48.780;9.212;2022-08-23T09:21:10;2.70;;;1.20;;
19257;SDS011;9763;48.780;9.212;2022-08-23T09:24:36;1.97;;;1.27;;
19257;SDS011;9763;48.780;9.212;2022-08-23T09:28:07;2.30;;;1.00;;
19257;SDS011;9763;48.780;9.212;2022-08-23T09:31:39;1.90;;;1.07;;
19257;SDS011;9763;48.780;9.212;2022-08-23T09:35:08;1.87;;;1.20;;
19257;SDS011;9763;48.780;9.212;2022-08-23T09:38:48;2.00;;;1.20;;
19257;SDS011;9763;48.780;9.212;2022-08-23T09:42:27;1.70;;;1.10;;
19257;SDS011;9763;48.780;9.212;2022-08-23T09:45:58;1.40;;;1.00;;
19257;SDS011;9763;48.780;9.212;2022-08-23T09:49:30;1.63;;;1.07;;
19257;SDS011;9763;48.780;9.212;2022-08-23T09:53:01;1.60;;;0.90;;
19257;SDS011;9763;48.780;9.212;2022-08-23T09:56:30;1.30;;;0.90;;
19257;SDS011;9763;48.780;9.212;2022-08-23T10:00:17;1.77;;;1.07;;
19257;SDS011;9763;48.780;9.212;2022-08-23T10:04:05;1.70;;;0.97;;
19257;SDS011;9763;48.780;9.212;2022-08-23T10:07:35;1.50;;;1.00;;
19257;SDS011;9763;48.780;9.212;2022-08-23T10:11:09;1.50;;;1.00;;
19257;SDS011;9763;48.780;9.212;2022-08-23T10:14:41;2.20;;;1.00;;
19257;SDS011;9763;48.780;9.212;2022-08-23T10:18:07;1.40;;;1.00;;
19257;SDS011;9763;48.780;9.212;2022-08-23T10:21:47;4.50;;;1.10;;
19257;SDS011;9763;48.780;9.212;2022-08-23T10:25:21;1.33;;;0.87;;
19257;SDS011;9763;48.780;9.212;2022-08-23T10:28:58;1.40;;;0.90;;
19257;SDS011;9763;48.780;9.212;2022-08-23T10:33:04;1.40;;;0.90;;
19257;SDS011;9763;48.780;9.212;2022-08-23T10:36:46;3.00;;;0.90;;
19257;SDS011;9763;48.780;9.212;2022-08-23T10:40:24;1.50;;;0.90;;
19257;SDS011;9763;48.780;9.212;2022-08-23T10:43:57;1.50;;;0.80;;
19257;SDS011;9763;48.780;9.212;2022-08-23T10:47:37;1.50;;;1.00;;
19257;SDS011;9763;48.780;9.212;2022-08-23T10:51:15;1.70;;;0.90;;
19257;SDS011;9763;48.780;9.212;2022-08-23T10:54:54;1.70;;;1.10;;
19257;SDS011;9763;48.780;9.212;2022-08-23T10:58:31;1.30;;;1.00;;
19257;SDS011;9763;48.780;9.212;2022-08-23T11:02:05;1.37;;;0.90;;
19257;SDS011;9763;48.780;9.212;2022-08-23T11:09:54;1.40;;;1.00;;
19257;SDS011;9763;48.780;9.212;2022-08-23T11:13:49;1.77;;;1.00;;
19257;SDS011;9763;48.780;9.212;2022-08-23T11:17:23;1.60;;;1.10;;
19257;SDS011;9763;48.780;9.212;2022-08-23T11:21:05;1.67;;;0.97;;
19257;SDS011;9763;48.780;9.212;2022-08-23T11:24:49;1.73;;;1.10;;
19257;SDS011;9763;48.780;9.212;2022-08-23T11:28:30;1.50;;;0.90;;
19257;SDS011;9763;48.780;9.212;2022-08-23T11:36:16;1.40;;;1.10;;
19257;SDS011;9763;48.780;9.212;2022-08-23T11:43:39;1.47;;;0.90;;
19257;SDS011;9763;48.780;9.212;2022-08-23T11:47:06;1.70;;;1.00;;
19257;SDS011;9763;48.780;9.212;2022-08-23T11:50:38;1.67;;;0.83;;
19257;SDS011;9763;48.780;9.212;2022-08-23T11:54:26;1.50;;;0.90;;
19257;SDS011;9763;48.780;9.212;2022-08-23T11:58:19;1.57;;;0.93;;
19257;SDS011;9763;48.780;9.212;2022-08-23T12:01:50;1.50;;;1.00;;
19257;SDS011;9763;48.780;9.212;2022-08-23T12:05:23;1.50;;;0.90;;
19257;SDS011;9763;48.780;9.212;2022-08-23T12:13:25;1.50;;;0.87;;
19257;SDS011;9763;48.780;9.212;2022-08-23T12:16:55;1.40;;;1.00;;
19257;SDS011;9763;48.780;9.212;2022-08-23T12:20:21;1.90;;;1.23;;
19257;SDS011;9763;48.780;9.212;2022-08-23T12:23:54;1.40;;;0.90;;
19257;SDS011;9763;48.780;9.212;2022-08-23T12:27:24;1.40;;;0.90;;
19257;SDS011;9763;48.780;9.212;2022-08-23T12:30:56;1.50;;;1.00;;
19257;SDS011;9763;48.780;9.212;2022-08-23T12:34:37;2.43;;;1.10;;
19257;SDS011;9763;48.780;9.212;2022-08-23T12:38:16;1.73;;;1.03;;
19257;SDS011;9763;48.780;9.212;2022-08-23T12:42:00;3.47;;;1.10;;
19257;SDS011;9763;48.780;9.212;2022-08-23T12:45:34;3.40;;;0.93;;
19257;SDS011;9763;48.780;9.212;2022-08-23T12:49:03;1.80;;;1.20;;
19257;SDS011;9763;48.780;9.212;2022-08-23T12:52:34;1.70;;;1.00;;
19257;SDS011;9763;48.780;9.212;2022-08-23T12:56:00;1.80;;;1.00;;
19257;SDS011;9763;48.780;9.212;2022-08-23T12:59:34;1.50;;;1.10;;
19257;SDS011;9763;48.780;9.212;2022-08-23T13:03:04;1.63;;;0.87;;
19257;SDS011;9763;48.780;9.212;2022-08-23T13:06:38;1.70;;;1.20;;
19257;SDS011;9763;48.780;9.212;2022-08-23T13:10:08;1.73;;;1.37;;
19257;SDS011;9763;48.780;9.212;2022-08-23T13:13:32;2.43;;;1.30;;
19257;SDS011;9763;48.780;9.212;2022-08-23T13:17:12;1.70;;;1.10;;
19257;SDS011;9763;48.780;9.212;2022-08-23T13:24:40;1.93;;;1.00;;
19257;SDS011;9763;48.780;9.212;2022-08-23T13:28:07;2.87;;;1.20;;
19257;SDS011;9763;48.780;9.212;2022-08-23T13:31:52;1.67;;;1.10;;
19257;SDS011;9763;48.780;9.212;2022-08-23T13:35:33;1.43;;;1.00;;
19257;SDS011;9763;48.780;9.212;2022-08-23T13:39:03;2.37;;;1.20;;
19257;SDS011;9763;48.780;9.212;2022-08-23T13:42:30;2.93;;;1.40;;
19257;SDS011;9763;48.780;9.212;2022-08-23T13:46:13;1.90;;;1.20;;
19257;SDS011;9763;48.780;9.212;2022-08-23T13:49:43;1.63;;;0.93;;
19257;SDS011;9763;48.780;9.212;2022-08-23T13:53:08;1.60;;;1.00;;
19257;SDS011;9763;48.780;9.212;2022-08-23T13:56:45;1.60;;;1.13;;
19257;SDS011;9763;48.780;9.212;2022-08-23T14:00:12;2.23;;;1.00;;
19257;SDS011;9763;48.780;9.212;2022-08-23T14:03:40;2.00;;;1.20;;
19257;SDS011;9763;48.780;9.212;2022-08-23T14:07:04;1.67;;;1.00;;
19257;SDS011;9763;48.780;9.212;2022-08-23T14:10:29;1.40;;;1.00;;
19257;SDS011;9763;48.780;9.212;2022-08-23T14:13:53;1.87;;;1.17;;
19257;SDS011;9763;48.780;9.212;2022-08-23T14:17:17;1.90;;;1.20;;
19257;SDS011;9763;48.780;9.212;2022-08-23T14:20:41;2.80;;;1.20;;
19257;SDS011;9763;48.780;9.212;2022-08-23T14:24:07;2.83;;;1.33;;
19257;SDS011;9763;48.780;9.212;2022-08-23T14:27:32;1.50;;;1.00;;
19257;SDS011;9763;48.780;9.212;2022-08-23T14:30:56;2.10;;;1.20;;
19257;SDS011;9763;48.780;9.212;2022-08-23T14:34:20;2.53;;;1.40;;
19257;SDS011;9763;48.780;9.212;2022-08-23T14:37:44;1.50;;;1.10;;
19257;SDS011;9763;48.780;9.212;2022-08-23T14:41:28;1.60;;;1.10;;
19257;SDS011;9763;48.780;9.212;2022-08-23T14:44:55;1.50;;;1.10;;
19257;SDS011;9763;48.780;9.212;2022-08-23T14:48:18;1.90;;;1.10;;
19257;SDS011;9763;48.780;9.212;2022-08-23T14:51:43;1.53;;;1.13;;
19257;SDS011;9763;48.780;9.212;2022-08-23T14:55:10;1.97;;;1.10;;
19257;SDS011;9763;48.780;9.212;2022-08-23T14:58:34;1.70;;;1.30;;
19257;SDS011;9763;48.780;9.212;2022-08-23T15:02:02;1.60;;;1.17;;
19257;SDS011;9763;48.780;9.212;2022-08-23T15:05:28;1.40;;;1.10;;
19257;SDS011;9763;48.780;9.212;2022-08-23T15:08:52;1.80;;;1.20;;
19257;SDS011;9763;48.780;9.212;2022-08-23T15:12:15;2.50;;;1.20;;
19257;SDS011;9763;48.780;9.212;2022-08-23T15:16:00;1.43;;;1.10;;
19257;SDS011;9763;48.780;9.212;2022-08-23T15:19:29;2.07;;;1.30;;
19257;SDS011;9763;48.780;9.212;2022-08-23T15:22:52;2.17;;;1.43;;
19257;SDS011;9763;48.780;9.212;2022-08-23T15:26:18;1.67;;;1.00;;
19257;SDS011;9763;48.780;9.212;2022-08-23T15:29:50;1.73;;;1.00;;
19257;SDS011;9763;48.780;9.212;2022-08-23T15:33:14;1.83;;;1.10;;
19257;SDS011;9763;48.780;9.212;2022-08-23T15:36:39;1.40;;;0.90;;
19257;SDS011;9763;48.780;9.212;2022-08-23T15:40:04;1.50;;;1.10;;
19257;SDS011;9763;48.780;9.212;2022-08-23T15:43:30;2.23;;;1.17;;
19257;SDS011;9763;48.780;9.212;2022-08-23T15:46:55;1.43;;;1.10;;
19257;SDS011;9763;48.780;9.212;2022-08-23T15:50:21;1.80;;;1.10;;
19257;SDS011;9763;48.780;9.212;2022-08-23T15:53:53;1.47;;;1.13;;
19257;SDS011;9763;48.780;9.212;2022-08-23T15:57:19;1.73;;;1.10;;
19257;SDS011;9763;48.780;9.212;2022-08-23T16:00:48;1.67;;;1.30;;
19257;SDS011;9763;48.780;9.212;2022-08-23T16:04:12;1.80;;;1.17;;
19257;SDS011;9763;48.780;9.212;2022-08-23T16:07:36;1.80;;;1.30;;
19257;SDS011;9763;48.780;9.212;2022-08-23T16:11:03;2.67;;;1.30;;
19257;SDS011;9763;48.780;9.212;2022-08-23T16:14:33;2.00;;;1.30;;
19257;SDS011;9763;48.780;9.212;2022-08-23T16:17:57;2.83;;;1.20;;
19257;SDS011;9763;48.780;9.212;2022-08-23T16:21:21;1.50;;;1.07;;
19257;SDS011;9763;48.780;9.212;2022-08-23T16:24:47;1.80;;;1.10;;
19257;SDS011;9763;48.780;9.212;2022-08-23T16:28:12;1.80;;;1.30;;
19257;SDS011;9763;48.780;9.212;2022-08-23T16:31:36;2.17;;;1.47;;
19257;SDS011;9763;48.780;9.212;2022-08-23T16:35:00;1.70;;;1.10;;
19257;SDS011;9763;48.780;9.212;2022-08-23T16:38:24;2.03;;;1.10;;
19257;SDS011;9763;48.780;9.212;2022-08-23T16:41:48;2.47;;;1.37;;
19257;SDS011;9763;48.780;9.212;2022-08-23T16:45:13;1.60;;;1.17;;
19257;SDS011;9763;48.780;9.212;2022-08-23T16:48:45;1.90;;;1.30;;
19257;SDS011;9763;48.780;9.212;2022-08-23T16:52:09;1.70;;;1.33;;
19257;SDS011;9763;48.780;9.212;2022-08-23T16:55:33;1.80;;;1.40;;
19257;SDS011;9763;48.780;9.212;2022-08-23T16:58:58;1.60;;;1.13;;
19257;SDS011;9763;48.780;9.212;2022-08-23T17:02:24;1.70;;;1.07;;
19257;SDS011;9763;48.780;9.212;2022-08-23T17:05:51;2.10;;;1.20;;
19257;SDS011;9763;48.780;9.212;2022-08-23T17:09:14;1.67;;;1.10;;
19257;SDS011;9763;48.780;9.212;2022-08-23T17:12:39;1.83;;;1.10;;
19257;SDS011;9763;48.780;9.212;2022-08-23T17:16:08;1.53;;;1.00;;
19257;SDS011;9763;48.780;9.212;2022-08-23T17:19:34;1.70;;;1.10;;
19257;SDS011;9763;48.780;9.212;2022-08-23T17:22:57;1.60;;;1.00;;
19257;SDS011;9763;48.780;9.212;2022-08-23T17:26:26;1.50;;;1.10;;
19257;SDS011;9763;48.780;9.212;2022-08-23T17:29:50;1.50;;;1.10;;
19257;SDS011;9763;48.780;9.212;2022-08-23T17:33:15;2.80;;;0.93;;
19257;SDS011;9763;48.780;9.212;2022-08-23T17:36:42;1.60;;;1.20;;
19257;SDS011;9763;48.780;9.212;2022-08-23T17:40:13;2.40;;;1.57;;
19257;SDS011;9763;48.780;9.212;2022-08-23T17:43:42;2.13;;;1.20;;
19257;SDS011;9763;48.780;9.212;2022-08-23T17:47:07;1.60;;;1.20;;
19257;SDS011;9763;48.780;9.212;2022-08-23T17:50:36;2.10;;;1.10;;
19257;SDS011;9763;48.780;9.212;2022-08-23T17:54:01;1.80;;;1.40;;
19257;SDS011;9763;48.780;9.212;2022-08-23T17:57:26;1.93;;;1.10;;
19257;SDS011;9763;48.780;9.212;2022-08-23T18:00:52;1.90;;;1.20;;
19257;SDS011;9763;48.780;9.212;2022-08-23T18:04:16;1.60;;;1.13;;
19257;SDS011;9763;48.780;9.212;2022-08-23T18:07:40;1.60;;;1.10;;
19257;SDS011;9763;48.780;9.212;2022-08-23T18:11:05;1.50;;;1.07;;
19257;SDS011;9763;48.780;9.212;2022-08-23T18:14:29;1.47;;;1.17;;
19257;SDS011;9763;48.780;9.212;2022-08-23T18:17:52;1.50;;;1.00;;
19257;SDS011;9763;48.780;9.212;2022-08-23T18:21:19;1.60;;;1.20;;
19257;SDS011;9763;48.780;9.212;2022-08-23T18:24:44;1.60;;;1.10;;
19257;SDS011;9763;48.780;9.212;2022-08-23T18:28:08;1.80;;;1.10;;
19257;SDS011;9763;48.780;9.212;2022-08-23T18:31:33;2.10;;;1.37;;
19257;SDS011;9763;48.780;9.212;2022-08-23T18:34:57;1.60;;;1.07;;
19257;SDS011;9763;48.780;9.212;2022-08-23T18:38:20;1.50;;;1.20;;
19257;SDS011;9763;48.780;9.212;2022-08-23T18:41:44;1.60;;;1.37;;
19257;SDS011;9763;48.780;9.212;2022-08-23T18:45:13;2.00;;;1.13;;
19257;SDS011;9763;48.780;9.212;2022-08-23T18:48:39;1.50;;;1.10;;
19257;SDS011;9763;48.780;9.212;2022-08-23T18:52:13;1.60;;;1.20;;
19257;SDS011;9763;48.780;9.212;2022-08-23T18:55:37;1.43;;;1.13;;
19257;SDS011;9763;48.780;9.212;2022-08-23T18:59:02;1.60;;;1.10;;
19257;SDS011;9763;48.780;9.212;2022-08-23T19:02:28;2.10;;;1.30;;
19257;SDS011;9763;48.780;9.212;2022-08-23T19:05:53;1.60;;;1.20;;
19257;SDS011;9763;48.780;9.212;2022-08-23T19:09:16;1.70;;;1.30;;
19257;SDS011;9763;48.780;9.212;2022-08-23T19:12:40;1.50;;;1.10;;
19257;SDS011;9763;48.780;9.212;2022-08-23T19:16:15;1.80;;;1.03;;
19257;SDS011;9763;48.780;9.212;2022-08-23T19:19:43;1.50;;;1.10;;
19257;SDS011;9763;48.780;9.212;2022-08-23T19:23:07;2.57;;;1.20;;
19257;SDS011;9763;48.780;9.212;2022-08-23T19:26:32;1.93;;;1.47;;
19257;SDS011;9763;48.780;9.212;2022-08-23T19:29:56;1.47;;;1.33;;
19257;SDS011;9763;48.780;9.212;2022-08-23T19:33:20;2.57;;;1.50;;
19257;SDS011;9763;48.780;9.212;2022-08-23T19:36:45;3.67;;;1.60;;
19257;SDS011;9763;48.780;9.212;2022-08-23T19:40:21;2.33;;;1.80;;
19257;SDS011;9763;48.780;9.212;2022-08-23T19:43:46;2.63;;;2.27;;
19257;SDS011;9763;48.780;9.212;2022-08-23T19:47:10;2.30;;;2.07;;
19257;SDS011;9763;48.780;9.212;2022-08-23T19:50:40;1.90;;;1.70;;
19257;SDS011;9763;48.780;9.212;2022-08-23T19:54:05;2.00;;;1.80;;
19257;SDS011;9763;48.780;9.212;2022-08-23T19:57:32;1.80;;;1.37;;
19257;SDS011;9763;48.780;9.212;2022-08-23T20:00:57;1.87;;;1.67;;
19257;SDS011;9763;48.780;9.212;2022-08-23T20:04:22;1.93;;;1.40;;
19257;SDS011;9763;48.780;9.212;2022-08-23T20:07:47;2.40;;;1.53;;
19257;SDS011;9763;48.780;9.212;2022-08-23T20:11:12;3.10;;;1.50;;
19257;SDS011;9763;48.780;9.212;2022-08-23T20:14:36;1.70;;;1.60;;
19257;SDS011;9763;48.780;9.212;2022-08-23T20:18:00;2.30;;;1.60;;
19257;SDS011;9763;48.780;9.212;2022-08-23T20:21:24;2.50;;;1.60;;
19257;SDS011;9763;48.780;9.212;2022-08-23T20:24:48;1.70;;;1.30;;
19257;SDS011;9763;48.780;9.212;2022-08-23T20:28:15;2.80;;;1.50;;
19257;SDS011;9763;48.780;9.212;2022-08-23T20:31:44;1.80;;;1.50;;
19257;SDS011;9763;48.780;9.212;2022-08-23T20:35:11;1.60;;;1.30;;
19257;SDS011;9763;48.780;9.212;2022-08-23T20:38:35;2.00;;;1.40;;
19257;SDS011;9763;48.780;9.212;2022-08-23T20:41:59;2.80;;;1.80;;
19257;SDS011;9763;48.780;9.212;2022-08-23T20:45:24;2.87;;;1.87;;
19257;SDS011;9763;48.780;9.212;2022-08-23T20:48:47;2.23;;;1.60;;
19257;SDS011;9763;48.780;9.212;2022-08-23T20:52:13;2.47;;;1.80;;
19257;SDS011;9763;48.780;9.212;2022-08-23T20:55:37;2.33;;;1.50;;
19257;SDS011;9763;48.780;9.212;2022-08-23T20:59:01;1.90;;;1.23;;
19257;SDS011;9763;48.780;9.212;2022-08-23T21:02:26;1.97;;;1.30;;
19257;SDS011;9763;48.780;9.212;2022-08-23T21:05:50;2.27;;;1.57;;
19257;SDS011;9763;48.780;9.212;2022-08-23T21:09:24;1.80;;;1.30;;
19257;SDS011;9763;48.780;9.212;2022-08-23T21:12:50;2.47;;;1.40;;
19257;SDS011;9763;48.780;9.212;2022-08-23T21:16:14;2.10;;;1.90;;
19257;SDS011;9763;48.780;9.212;2022-08-23T21:19:40;1.97;;;1.67;;
19257;SDS011;9763;48.780;9.212;2022-08-23T21:23:04;3.00;;;1.80;;
19257;SDS011;9763;48.780;9.212;2022-08-23T21:26:28;3.20;;;1.60;;
19257;SDS011;9763;48.780;9.212;2022-08-23T21:29:52;2.90;;;1.70;;
19257;SDS011;9763;48.780;9.212;2022-08-23T21:33:16;1.60;;;1.40;;
19257;SDS011;9763;48.780;9.212;2022-08-23T21:36:42;1.90;;;1.47;;
19257;SDS011;9763;48.780;9.212;2022-08-23T21:40:06;2.03;;;1.50;;